Minetto, NY (13115)

8:01 AM EDT on March 27, 2015 (GMT -0400)
Southwest Oswego | | Change Station
CLOSE
Current Station
Personal Weather Station
Location: Oswego, NY
Elevation: 298 ft
Nearby Weather Stations

Elev 298 ft 43.41 °N, 76.56 °W | Updated 50 seconds ago

Overcast
Overcast
32.8 °F
Feels Like 33 °F
N
1.0
Wind Variable Wind from SSW
Gusts 5.0 mph

Today
High -- | Low -- °F
--% Chance of Precip.
Yesterday
High -- | Low -- °F
Precip. -- in
6:57 AM 7:26 PM
First Quarter, 52% visible
Pressure 29.83 in
Visibility 8.0 miles
Clouds Mostly Cloudy 1100 ft
Overcast 2300 ft
Windchill 33 °F
Dew Point 33 °F
Humidity 100%
Rainfall 0.07 in
Snow Depth Not available.
UV 0 out of 12
Pollen .60 out of 12
Air Quality Not available.
Flu Activity Not available.
METAR KFZY 271154Z AUTO 27007KT 8SM BKN011 OVC023 01/M01 A2981 RMK AO2 SLP099 60000 70028 T00111011 10017 20011 51010

More Conditions Fewer Conditions

Pressure 29.83 in
Visibility 8.0 miles
Clouds Mostly Cloudy 1100 ft
Overcast 2300 ft
Windchill 33 °F
Dew Point 33 °F
Humidity 100%
Rainfall 0.07 in
Snow Depth Not available.
UV 0 out of 12
Pollen .60 out of 12
Air Quality Not available.
Flu Activity Not available.
METAR KFZY 271154Z AUTO 27007KT 8SM BKN011 OVC023 01/M01 A2981 RMK AO2 SLP099 60000 70028 T00111011 10017 20011 51010

More Conditions Fewer Conditions

10-Day Weather Forecast

Almanac

Astronomy

Mar. 27, 2015 Rise Set
Actual Time
Civil Twilight
Nautical Twilight
Astronomical Twilight
Moon
Length of Visible Light
Length of Day
Tomorrow will be .
, % of the Moon is Illuminated

Today's Extremes

State Highs State Lows

Community

WunderPhotos

Upload Photos

1,808,711 photos uploaded!

WunderBlogs® & News

Nearby

Air Quality

  Air Quality AQ Index Pollutant
Not available.

Snow Depth

Station Depth Elevation

Earthquake Activity

City Distance Mag. Time & Date
Minimum magnitude displayed is 2.5.

Coastal Water Temperatures

Place Temperature

Stations

Nearby Weather Stations

Station Location Temp. Windchill Dew Point Humidity Wind Precip. Elev Updated Type